This is the latest recevied weather packets stored in our database for station/object DM7LA-WX. If no packets are shown the sender has not sent any weather packets the latest 10 day(s).
| Time | Temp. | Humidity | Pressure | Rain* | Wind** | Luminosity | Snow |
|---|---|---|---|---|---|---|---|
| 1788011882 | 19.44° C | 79% | 1003.5 hPa | 0.51 mm | - | - | - |
| 1788008281 | 20.56° C | 71% | 1003.4 hPa | 0 mm | - | - | - |
| 1788004682 | 20.56° C | 76% | 1003.5 hPa | 0 mm | - | - | - |
| 1788001081 | 20° C | 78% | 1003.5 hPa | 0 mm | - | - | - |
| 1787997482 | 18.89° C | 82% | 1002.9 hPa | 0 mm | - | - | - |
| 1787993882 | 17.22° C | 89% | 1002.3 hPa | 0 mm | - | - | - |
| 1787990282 | 16.67° C | 89% | 1002.1 hPa | 0 mm | - | - | - |
| 1787986682 | 15.56° C | 92% | 1001.8 hPa | 0.25 mm | - | - | - |
| 1787983082 | 15.56° C | 90% | 1001.5 hPa | 0.25 mm | - | - | - |
| 1787979482 | 16.11° C | 87% | 1001.3 hPa | 0 mm | - | - | - |
| 1787975882 | 16.67° C | 87% | 1001.6 hPa | 0 mm | - | - | - |
| 1787972281 | 16.11° C | 87% | 1001.4 hPa | 0 mm | - | - | - |
| 1787968681 | 16.11° C | 88% | 1001.6 hPa | 0 mm | - | - | - |
| 1787965082 | 16.11° C | 88% | 1001.6 hPa | 0 mm | - | - | - |
| 1787961482 | 16.11° C | 89% | 1001.5 hPa | 0 mm | - | - | - |
| 1787954282 | 15.56° C | 88% | 1002.6 hPa | 0 mm | - | - | - |
| 1787950682 | 16.11° C | 84% | 1002.3 hPa | 0 mm | - | - | - |
| 1787929082 | 20.56° C | 79% | 1001.6 hPa | 0 mm | - | - | - |
| 1787921881 | 20.56° C | 82% | 1001.9 hPa | 0 mm | - | - | - |
| 1787918281 | 20.56° C | 84% | 1001.8 hPa | 0 mm | - | - | - |
| 1787914682 | 20.56° C | 86% | 1001.4 hPa | 0 mm | - | - | - |
| 1787911081 | 19.44° C | 88% | 1001.9 hPa | 0 mm | - | - | - |
| 1787907482 | 19.44° C | 91% | 1001.3 hPa | 0 mm | - | - | - |
| 1787903881 | 18.89° C | 92% | 1001.6 hPa | 0 mm | - | - | - |
| 1787900281 | 18.89° C | 92% | 1001.3 hPa | 0 mm | - | - | - |
* Rain latest hour (hover to see other rain measurements)
** Current wind speed in m/s (hover to see current wind gust speed)